Time;durP1;ratioP1;P1;durP2;ratioP2;P2;SDS_P1;SDS_P2;PMS_P1;PMS_P2;Temp;Humidity;BMP_temperature;BMP_pressure;BME280_temperature;BME280_humidity;BME280_pressure;Samples;Min_cycle;Max_cycle;Signal;HPM_P1;HPM_P2
2021/10/11 00:00:06;;;;;;;4.60;3.25;;;12.90;99.90;;;;;;5089321;27;20059;-77
2021/10/11 00:02:39;;;;;;;4.80;2.45;;;12.90;99.90;;;;;;5115983;27;20031;-77
2021/10/11 00:05:07;;;;;;;7.93;2.80;;;12.90;99.90;;;;;;5104722;27;20050;-76
2021/10/11 00:07:33;;;;;;;5.32;1.77;;;12.90;99.90;;;;;;5092926;27;20040;-76
2021/10/11 00:10:00;;;;;;;7.00;1.67;;;12.90;99.90;;;;;;5108752;27;20027;-76
2021/10/11 00:12:26;;;;;;;6.38;1.77;;;12.90;99.90;;;;;;5091131;27;20039;-76
2021/10/11 00:14:53;;;;;;;7.90;1.48;;;12.90;99.90;;;;;;5092817;27;20042;-76
2021/10/11 00:17:20;;;;;;;3.80;1.10;;;12.90;99.90;;;;;;5128844;27;20035;-76
2021/10/11 00:19:50;;;;;;;5.95;1.40;;;12.80;99.90;;;;;;5105227;27;20506;-76
2021/10/11 00:22:21;;;;;;;5.07;1.23;;;12.80;99.90;;;;;;5128316;27;20038;-76
2021/10/11 00:24:48;;;;;;;3.58;1.10;;;12.80;99.90;;;;;;5114643;27;20045;-76
2021/10/11 00:27:15;;;;;;;7.07;1.00;;;12.80;99.90;;;;;;5110925;27;20040;-76
2021/10/11 00:29:41;;;;;;;5.43;0.90;;;12.80;99.90;;;;;;5114412;27;20042;-76
2021/10/11 00:32:08;;;;;;;5.43;1.42;;;12.70;99.90;;;;;;5115448;27;20031;-76
2021/10/11 00:34:35;;;;;;;5.25;1.10;;;12.70;99.90;;;;;;5089684;27;20038;-76
2021/10/11 00:37:03;;;;;;;6.25;1.00;;;12.70;99.90;;;;;;5106601;27;20547;-76
2021/10/11 00:39:30;;;;;;;6.95;1.00;;;12.60;99.90;;;;;;5107333;27;20511;-76
2021/10/11 00:41:56;;;;;;;6.43;0.80;;;12.60;99.90;;;;;;5106015;27;20035;-76
2021/10/11 00:44:23;;;;;;;6.13;0.88;;;12.50;99.90;;;;;;5087427;27;20530;-76
2021/10/11 00:46:49;;;;;;;7.63;0.90;;;12.50;99.90;;;;;;5114499;27;20035;-75
2021/10/11 00:49:15;;;;;;;4.00;0.70;;;12.40;99.90;;;;;;5114204;27;20031;-76
2021/10/11 00:51:43;;;;;;;6.25;1.30;;;12.30;99.90;;;;;;5098730;27;20496;-76
2021/10/11 00:54:10;;;;;;;5.22;1.05;;;12.30;99.90;;;;;;5122322;27;20044;-76
2021/10/11 00:56:37;;;;;;;3.38;0.80;;;12.30;99.90;;;;;;5129558;27;20046;-76
2021/10/11 00:59:03;;;;;;;3.30;0.70;;;12.20;99.90;;;;;;5113706;27;20063;-76
2021/10/11 01:01:30;;;;;;;3.92;1.00;;;12.20;99.90;;;;;;5111126;27;20490;-76
2021/10/11 01:03:57;;;;;;;9.48;1.20;;;12.10;99.90;;;;;;5094962;27;20545;-76
2021/10/11 01:06:24;;;;;;;5.50;0.90;;;12.10;99.90;;;;;;5113362;27;20621;-76
2021/10/11 01:08:51;;;;;;;5.32;1.10;;;12.10;99.90;;;;;;5096872;27;20422;-76
2021/10/11 01:11:17;;;;;;;5.63;1.30;;;12.10;99.90;;;;;;5114963;27;20031;-76
2021/10/11 01:13:43;;;;;;;9.05;0.90;;;12.10;99.90;;;;;;5092502;27;20039;-75
2021/10/11 01:16:10;;;;;;;3.42;0.95;;;12.10;99.90;;;;;;5099768;27;20051;-76
2021/10/11 01:18:38;;;;;;;4.90;0.98;;;12.10;99.90;;;;;;5113208;27;20396;-76
2021/10/11 01:21:05;;;;;;;6.53;0.90;;;12.10;99.90;;;;;;5074874;27;20054;-77
2021/10/11 01:23:31;;;;;;;9.43;1.10;;;12.10;99.90;;;;;;5097345;27;20420;-76
2021/10/11 01:25:58;;;;;;;5.25;1.30;;;12.10;99.90;;;;;;5123548;27;20444;-76
2021/10/11 01:28:26;;;;;;;8.38;1.35;;;12.10;99.90;;;;;;5113451;27;20018;-76
2021/10/11 01:30:53;;;;;;;3.83;1.13;;;12.10;99.90;;;;;;5119996;27;20046;-76
2021/10/11 01:33:19;;;;;;;8.05;1.58;;;12.10;99.90;;;;;;5094266;27;20035;-76
2021/10/11 01:35:46;;;;;;;2.83;1.38;;;12.10;99.90;;;;;;5112197;27;20534;-76
2021/10/11 01:38:13;;;;;;;6.82;1.52;;;12.10;99.90;;;;;;5120806;27;20035;-76
2021/10/11 01:40:40;;;;;;;11.48;1.90;;;12.20;99.90;;;;;;5122145;27;20035;-76
2021/10/11 01:43:08;;;;;;;4.22;1.50;;;12.20;99.90;;;;;;5119721;27;20037;-76
2021/10/11 01:45:36;;;;;;;5.93;1.75;;;12.30;99.90;;;;;;5113404;27;20042;-76
2021/10/11 01:48:04;;;;;;;13.85;2.28;;;12.30;99.90;;;;;;5093858;27;20042;-76
2021/10/11 01:50:31;;;;;;;5.35;1.50;;;12.30;99.90;;;;;;5110840;27;20031;-77
2021/10/11 01:52:58;;;;;;;6.13;1.80;;;12.30;99.90;;;;;;5116998;27;20035;-76
2021/10/11 01:55:24;;;;;;;11.82;1.63;;;12.30;99.90;;;;;;5084150;27;20041;-77
2021/10/11 01:57:51;;;;;;;8.85;1.70;;;12.20;99.90;;;;;;5094242;27;20040;-76
2021/10/11 02:00:18;;;;;;;9.48;1.50;;;12.10;99.90;;;;;;5098039;27;20054;-77
2021/10/11 02:02:44;;;;;;;6.10;1.25;;;12.10;99.90;;;;;;5119511;27;20031;-76
2021/10/11 02:05:11;;;;;;;8.10;1.95;;;12.00;99.90;;;;;;5107186;27;20027;-77
2021/10/11 02:07:38;;;;;;;5.60;1.30;;;11.90;99.90;;;;;;5110071;27;20043;-76
2021/10/11 02:10:06;;;;;;;5.43;0.93;;;11.80;99.90;;;;;;5126613;27;20034;-76
2021/10/11 02:12:32;;;;;;;8.48;1.90;;;11.80;99.90;;;;;;5115235;27;20039;-76
2021/10/11 02:15:01;;;;;;;7.22;1.40;;;11.70;99.90;;;;;;5120587;27;20487;-76
2021/10/11 02:17:27;;;;;;;4.75;1.40;;;11.60;99.90;;;;;;5112145;27;20042;-76
2021/10/11 02:19:54;;;;;;;5.88;1.10;;;11.60;99.90;;;;;;5108563;27;20035;-76
2021/10/11 02:22:20;;;;;;;9.63;1.30;;;11.50;99.90;;;;;;5104254;27;20055;-76
2021/10/11 02:24:46;;;;;;;6.38;1.38;;;11.50;99.90;;;;;;5096243;27;20498;-76
2021/10/11 02:27:13;;;;;;;13.77;2.20;;;11.40;99.90;;;;;;5108152;27;20713;-76
2021/10/11 02:29:39;;;;;;;8.57;1.42;;;11.30;99.90;;;;;;5087823;27;20035;-76
2021/10/11 02:32:06;;;;;;;5.95;1.17;;;11.30;99.90;;;;;;5111658;27;20044;-76
2021/10/11 02:34:32;;;;;;;8.93;1.58;;;11.30;99.90;;;;;;5110105;27;20055;-76
2021/10/11 02:36:59;;;;;;;9.02;2.00;;;11.30;99.90;;;;;;5121807;27;20055;-76
2021/10/11 02:39:25;;;;;;;7.15;1.42;;;11.20;99.90;;;;;;5106844;27;20044;-76
2021/10/11 02:41:52;;;;;;;7.00;1.80;;;11.20;99.90;;;;;;5110438;27;20038;-77
2021/10/11 02:44:18;;;;;;;6.85;1.80;;;11.20;99.90;;;;;;5118228;27;20041;-76
2021/10/11 02:46:44;;;;;;;4.68;1.30;;;11.10;99.90;;;;;;5096094;27;20547;-76
2021/10/11 02:49:13;;;;;;;3.95;1.05;;;11.10;99.90;;;;;;5110565;27;20042;-76
2021/10/11 02:51:40;;;;;;;6.80;1.42;;;11.10;99.90;;;;;;5108076;27;20046;-76
2021/10/11 02:54:07;;;;;;;6.10;1.33;;;11.00;99.90;;;;;;5091376;27;20035;-76
2021/10/11 02:56:34;;;;;;;6.00;1.30;;;11.00;99.90;;;;;;5092258;27;20043;-76
2021/10/11 02:59:00;;;;;;;4.95;1.60;;;11.00;99.90;;;;;;5089170;27;20052;-76
2021/10/11 03:01:27;;;;;;;13.05;2.50;;;10.90;99.90;;;;;;5109642;27;20045;-76
2021/10/11 03:03:53;;;;;;;9.60;1.48;;;10.90;99.90;;;;;;5108068;27;20495;-76
2021/10/11 03:06:19;;;;;;;6.47;1.33;;;10.90;99.90;;;;;;5107727;27;20055;-76
2021/10/11 03:08:46;;;;;;;6.95;1.20;;;10.80;99.90;;;;;;5093513;27;20324;-76
2021/10/11 03:11:12;;;;;;;11.18;1.25;;;10.80;99.90;;;;;;5110071;27;20035;-76
2021/10/11 03:13:39;;;;;;;12.75;2.28;;;10.70;99.90;;;;;;5118386;27;20043;-76
2021/10/11 03:16:05;;;;;;;7.80;1.20;;;10.70;99.90;;;;;;5118178;27;20040;-76
2021/10/11 03:18:31;;;;;;;5.78;0.90;;;10.70;99.90;;;;;;5103387;27;21166;-76
2021/10/11 03:20:58;;;;;;;6.25;1.15;;;10.60;99.90;;;;;;5126047;27;20045;-76
2021/10/11 03:23:25;;;;;;;5.20;1.10;;;10.60;99.90;;;;;;5106684;27;20042;-76
2021/10/11 03:25:51;;;;;;;7.53;1.13;;;10.60;99.90;;;;;;5087465;27;20368;-76
2021/10/11 03:28:18;;;;;;;9.23;1.13;;;10.50;99.90;;;;;;5117228;27;20019;-76
2021/10/11 03:30:44;;;;;;;4.65;0.85;;;10.40;99.90;;;;;;5056965;27;20492;-76
2021/10/11 03:33:11;;;;;;;4.35;1.05;;;10.40;99.90;;;;;;5116414;27;20027;-76
2021/10/11 03:35:37;;;;;;;4.07;1.00;;;10.40;99.90;;;;;;5090482;27;20039;-76
2021/10/11 03:38:04;;;;;;;4.30;0.77;;;10.30;99.90;;;;;;5114413;27;20035;-77
2021/10/11 03:40:30;;;;;;;5.65;0.93;;;10.20;99.90;;;;;;5116396;27;20066;-75
2021/10/11 03:42:56;;;;;;;5.03;0.93;;;10.20;99.90;;;;;;5120376;27;20047;-76
2021/10/11 03:45:23;;;;;;;7.82;3.22;;;10.20;99.90;;;;;;5124397;27;20129;-76
2021/10/11 03:47:49;;;;;;;24.20;10.18;;;10.10;99.90;;;;;;5109319;27;20506;-76
2021/10/11 03:50:16;;;;;;;16.90;8.73;;;10.10;99.90;;;;;;5070290;27;20031;-76
2021/10/11 03:52:42;;;;;;;15.27;9.20;;;10.00;99.90;;;;;;5089717;27;20792;-76
2021/10/11 03:55:09;;;;;;;17.33;8.73;;;10.00;99.90;;;;;;5121702;27;20138;-75
2021/10/11 03:57:35;;;;;;;11.27;5.95;;;10.00;99.90;;;;;;5106626;27;20039;-75
2021/10/11 04:00:03;;;;;;;11.25;4.35;;;10.00;99.90;;;;;;5117864;27;20043;-75
2021/10/11 04:02:38;;;;;;;9.45;3.20;;;9.90;99.90;;;;;;5110698;27;20460;-75
2021/10/11 04:05:06;;;;;;;5.80;2.08;;;9.90;99.90;;;;;;5111887;27;20387;-75
2021/10/11 04:07:33;;;;;;;6.25;1.90;;;9.90;99.90;;;;;;5086128;27;20462;-74
2021/10/11 04:10:03;;;;;;;8.00;1.65;;;9.80;99.90;;;;;;5104344;27;20027;-74
2021/10/11 04:12:37;;;;;;;6.82;1.55;;;9.80;99.90;;;;;;5104978;27;20545;-74
2021/10/11 04:15:06;;;;;;;5.00;1.20;;;9.70;99.90;;;;;;5108275;27;20038;-74
2021/10/11 04:17:38;;;;;;;3.65;0.75;;;9.70;99.90;;;;;;5120528;27;20046;-74
2021/10/11 04:20:07;;;;;;;2.88;0.82;;;9.60;99.90;;;;;;5105686;27;20034;-74
2021/10/11 04:22:34;;;;;;;2.45;0.70;;;9.60;99.90;;;;;;5119730;27;20039;-74
2021/10/11 04:25:00;;;;;;;3.65;0.70;;;9.60;99.90;;;;;;5106093;27;20468;-74
2021/10/11 04:27:27;;;;;;;4.75;0.77;;;9.60;99.90;;;;;;5091282;27;20035;-74
2021/10/11 04:29:53;;;;;;;3.97;0.55;;;9.60;99.90;;;;;;5090834;27;20039;-74
2021/10/11 04:32:20;;;;;;;3.33;0.80;;;9.60;99.90;;;;;;5108822;27;20395;-74
2021/10/11 04:34:46;;;;;;;5.47;0.70;;;9.50;99.90;;;;;;5119542;27;20033;-74
2021/10/11 04:37:12;;;;;;;2.55;0.70;;;9.50;99.90;;;;;;5120189;27;20031;-74
2021/10/11 04:39:39;;;;;;;2.85;0.90;;;9.50;99.90;;;;;;5108053;27;20036;-74
2021/10/11 04:42:05;;;;;;;2.58;0.93;;;9.50;99.90;;;;;;5108129;27;20031;-74
2021/10/11 04:44:31;;;;;;;4.35;0.70;;;9.50;99.90;;;;;;5104372;27;20036;-74
2021/10/11 04:46:58;;;;;;;5.78;0.90;;;9.50;99.90;;;;;;5088400;27;20032;-74
2021/10/11 04:49:24;;;;;;;5.78;0.80;;;9.50;99.90;;;;;;5108274;27;20034;-74
2021/10/11 04:51:51;;;;;;;5.20;0.70;;;9.50;99.90;;;;;;5107106;27;20511;-74
2021/10/11 04:54:17;;;;;;;4.45;0.70;;;9.50;99.90;;;;;;5107200;27;20046;-74
2021/10/11 04:56:43;;;;;;;7.45;0.73;;;9.50;99.90;;;;;;5088596;28;20046;-74
2021/10/11 04:59:11;;;;;;;4.50;0.60;;;9.60;99.90;;;;;;5115438;27;20468;-74
2021/10/11 05:01:37;;;;;;;8.32;0.75;;;9.50;99.90;;;;;;5117288;27;20047;-74
2021/10/11 05:04:04;;;;;;;4.75;0.63;;;9.50;99.90;;;;;;5104678;27;20034;-74
2021/10/11 05:06:31;;;;;;;6.82;0.77;;;9.50;99.90;;;;;;5119477;27;20515;-74
2021/10/11 05:09:00;;;;;;;5.20;0.75;;;9.50;99.90;;;;;;5116121;27;20731;-75
2021/10/11 05:11:29;;;;;;;9.75;1.20;;;9.50;99.90;;;;;;5121463;27;20046;-75
2021/10/11 05:13:56;;;;;;;7.53;0.90;;;9.50;99.90;;;;;;5117044;27;20395;-75
2021/10/11 05:16:23;;;;;;;5.75;0.75;;;9.50;99.90;;;;;;5087856;28;20042;-75
2021/10/11 05:18:49;;;;;;;4.95;0.80;;;9.40;99.90;;;;;;5103124;28;20035;-75
2021/10/11 05:21:16;;;;;;;3.97;0.73;;;9.40;99.90;;;;;;5101613;27;20046;-75
2021/10/11 05:23:42;;;;;;;9.38;0.98;;;9.40;99.90;;;;;;5118542;27;20034;-75
2021/10/11 05:26:09;;;;;;;6.00;0.73;;;9.40;99.90;;;;;;5118947;27;20031;-75
2021/10/11 05:28:35;;;;;;;4.40;0.77;;;9.40;99.90;;;;;;5107297;27;20692;-75
2021/10/11 05:31:02;;;;;;;5.55;0.50;;;9.40;99.90;;;;;;5122189;27;20031;-75
2021/10/11 05:33:28;;;;;;;2.97;0.68;;;9.40;99.90;;;;;;5111738;27;20473;-75
2021/10/11 05:35:55;;;;;;;4.40;0.80;;;9.40;99.90;;;;;;5094094;27;20039;-75
2021/10/11 05:38:21;;;;;;;4.20;0.60;;;9.30;99.90;;;;;;5109700;27;20046;-75
2021/10/11 05:40:47;;;;;;;5.20;0.80;;;9.40;99.90;;;;;;5087052;27;20057;-75
2021/10/11 05:43:14;;;;;;;7.10;1.00;;;9.30;99.90;;;;;;5101644;27;20511;-74
2021/10/11 05:45:40;;;;;;;5.55;0.70;;;9.30;99.90;;;;;;5099233;27;20035;-74
2021/10/11 05:48:07;;;;;;;6.43;1.15;;;9.30;99.90;;;;;;5111153;27;20050;-74
2021/10/11 05:50:33;;;;;;;7.82;1.08;;;9.30;99.90;;;;;;5079347;27;20039;-74
2021/10/11 05:53:00;;;;;;;5.80;1.02;;;9.40;99.90;;;;;;5093205;27;20035;-74
2021/10/11 05:55:28;;;;;;;6.07;0.70;;;9.40;99.90;;;;;;5127261;27;20047;-74
2021/10/11 05:57:55;;;;;;;6.57;0.80;;;9.40;99.90;;;;;;5090845;27;20047;-74
2021/10/11 06:00:21;;;;;;;5.43;0.82;;;9.40;99.90;;;;;;5120549;27;20043;-74
2021/10/11 06:02:47;;;;;;;6.72;0.95;;;9.40;99.90;;;;;;5121526;27;20039;-74
2021/10/11 06:05:14;;;;;;;7.28;0.80;;;9.40;99.90;;;;;;5120150;27;20051;-74
2021/10/11 06:07:40;;;;;;;8.38;1.08;;;9.50;99.90;;;;;;5121215;27;20482;-73
2021/10/11 06:10:07;;;;;;;5.10;0.80;;;9.50;99.90;;;;;;5109928;27;20039;-74
2021/10/11 06:12:34;;;;;;;7.25;0.98;;;9.50;99.90;;;;;;5077489;27;20035;-74
2021/10/11 06:15:00;;;;;;;6.70;0.90;;;9.50;99.90;;;;;;5111655;27;20042;-74
2021/10/11 06:17:27;;;;;;;4.85;1.00;;;9.60;99.90;;;;;;5110904;27;20043;-74
2021/10/11 06:19:53;;;;;;;5.82;0.90;;;9.70;99.90;;;;;;5109831;27;20034;-76
2021/10/11 06:22:20;;;;;;;4.35;0.60;;;9.80;99.90;;;;;;5096663;27;20035;-74
2021/10/11 06:24:46;;;;;;;8.85;0.98;;;9.80;99.90;;;;;;5095892;27;20407;-74
2021/10/11 06:27:13;;;;;;;7.63;0.80;;;9.90;99.90;;;;;;5123167;27;20028;-74
2021/10/11 06:29:39;;;;;;;6.70;1.00;;;10.00;99.90;;;;;;5106837;27;20035;-74
2021/10/11 06:32:06;;;;;;;4.72;0.90;;;10.10;99.90;;;;;;5120642;27;20023;-74
2021/10/11 06:34:33;;;;;;;5.93;1.10;;;10.10;99.90;;;;;;5109346;27;20039;-74
2021/10/11 06:36:59;;;;;;;11.68;1.08;;;10.20;99.90;;;;;;5110860;27;20050;-74
2021/10/11 06:39:25;;;;;;;7.47;1.90;;;10.30;99.90;;;;;;5105977;27;20051;-74
2021/10/11 06:41:52;;;;;;;7.10;1.38;;;10.30;99.90;;;;;;5095223;27;20047;-75
2021/10/11 06:44:18;;;;;;;11.40;1.17;;;10.40;99.90;;;;;;5109166;27;20035;-74
2021/10/11 06:46:46;;;;;;;7.07;1.20;;;10.50;99.90;;;;;;5108777;27;20399;-75
2021/10/11 06:49:13;;;;;;;9.52;0.90;;;10.50;99.90;;;;;;5104909;27;20039;-75
2021/10/11 06:51:39;;;;;;;5.97;0.65;;;10.60;99.90;;;;;;5104098;27;20042;-76
2021/10/11 06:54:09;;;;;;;7.38;0.68;;;10.60;99.90;;;;;;5089988;27;20042;-75
2021/10/11 06:56:35;;;;;;;5.63;1.10;;;10.60;99.90;;;;;;5108058;27;20061;-74
2021/10/11 06:59:02;;;;;;;9.40;1.27;;;10.70;99.90;;;;;;5116636;27;20058;-75
2021/10/11 07:01:28;;;;;;;15.07;1.40;;;10.70;99.90;;;;;;5089703;27;20046;-75
2021/10/11 07:03:56;;;;;;;11.50;1.25;;;10.80;99.90;;;;;;5088101;27;20050;-76
2021/10/11 07:06:24;;;;;;;11.10;1.45;;;10.80;99.90;;;;;;5091607;27;20038;-75
2021/10/11 07:08:51;;;;;;;6.32;0.98;;;10.90;99.90;;;;;;5093033;27;20042;-75
2021/10/11 07:11:18;;;;;;;13.50;1.02;;;10.90;99.90;;;;;;5122982;27;20042;-75
2021/10/11 07:13:44;;;;;;;9.50;0.80;;;10.90;99.90;;;;;;5127063;27;20058;-74
2021/10/11 07:16:11;;;;;;;5.30;0.90;;;11.00;99.90;;;;;;5095506;27;20031;-74
2021/10/11 07:18:38;;;;;;;7.53;0.82;;;11.00;99.90;;;;;;5092846;27;20039;-74
2021/10/11 07:21:06;;;;;;;10.20;1.10;;;11.00;99.90;;;;;;5090442;27;20035;-74
2021/10/11 07:23:33;;;;;;;4.50;0.70;;;11.10;99.90;;;;;;5096088;27;20038;-74
2021/10/11 07:26:02;;;;;;;5.20;0.80;;;11.10;99.90;;;;;;5116812;27;20044;-75
2021/10/11 07:28:29;;;;;;;7.25;1.10;;;11.20;99.90;;;;;;5126729;27;20515;-74
2021/10/11 07:30:56;;;;;;;10.00;0.88;;;11.20;99.90;;;;;;5119810;27;20023;-74
2021/10/11 07:33:23;;;;;;;7.25;0.90;;;11.30;99.90;;;;;;5109161;27;20042;-75
2021/10/11 07:35:50;;;;;;;13.05;1.50;;;11.30;99.90;;;;;;5109702;27;20031;-75
2021/10/11 07:38:17;;;;;;;9.70;0.90;;;11.40;99.90;;;;;;5109902;27;20023;-75
2021/10/11 07:40:43;;;;;;;12.32;1.35;;;11.40;99.90;;;;;;5122847;27;20035;-75
2021/10/11 07:43:10;;;;;;;4.55;0.80;;;11.50;99.90;;;;;;5106146;27;20060;-75
2021/10/11 07:45:36;;;;;;;6.57;0.75;;;11.50;99.90;;;;;;5109821;27;20396;-74
2021/10/11 07:48:03;;;;;;;5.18;1.05;;;11.50;99.90;;;;;;5119688;27;20027;-74
2021/10/11 07:50:30;;;;;;;8.85;1.40;;;11.60;99.90;;;;;;5104258;27;20043;-75
2021/10/11 07:52:56;;;;;;;10.55;1.45;;;11.60;99.90;;;;;;5116832;27;20042;-75
2021/10/11 07:55:23;;;;;;;5.55;1.00;;;11.70;99.90;;;;;;5106342;27;20031;-74
2021/10/11 07:57:49;;;;;;;7.53;1.10;;;11.70;99.90;;;;;;5097131;27;20039;-77
2021/10/11 08:00:20;;;;;;;11.80;1.17;;;11.80;99.90;;;;;;5061928;28;20056;-74
2021/10/11 08:02:47;;;;;;;10.15;0.95;;;11.90;99.90;;;;;;5058726;28;20041;-75
2021/10/11 08:05:14;;;;;;;7.97;0.80;;;12.00;99.90;;;;;;5081821;28;20066;-74
2021/10/11 08:07:44;;;;;;;5.78;0.80;;;12.10;99.90;;;;;;5049464;28;20044;-75
2021/10/11 08:10:12;;;;;;;10.32;1.45;;;12.20;99.90;;;;;;5086584;28;20036;-74
2021/10/11 08:12:38;;;;;;;7.00;0.98;;;12.20;99.90;;;;;;5084455;28;20036;-74
2021/10/11 08:15:06;;;;;;;15.82;3.50;;;12.20;99.90;;;;;;5085965;28;20031;-74
2021/10/11 08:17:36;;;;;;;15.25;3.30;;;12.30;99.90;;;;;;5045566;28;20032;-75
2021/10/11 08:20:04;;;;;;;12.68;3.00;;;12.30;99.90;;;;;;5061216;28;20031;-74
2021/10/11 08:22:31;;;;;;;8.45;1.92;;;12.40;99.90;;;;;;5081500;28;20040;-74
2021/10/11 08:24:57;;;;;;;6.38;1.40;;;12.50;99.90;;;;;;5031960;28;20043;-74
2021/10/11 08:27:25;;;;;;;10.15;1.23;;;12.60;99.90;;;;;;5045816;28;20028;-75
2021/10/11 08:29:52;;;;;;;5.75;0.90;;;12.70;99.90;;;;;;5087374;28;20036;-75
2021/10/11 08:32:24;;;;;;;5.63;0.82;;;12.80;99.90;;;;;;5044477;28;20039;-75
2021/10/11 08:34:51;;;;;;;4.72;0.90;;;12.90;99.90;;;;;;5027876;28;20039;-75
2021/10/11 08:37:17;;;;;;;7.13;1.05;;;13.00;99.90;;;;;;5042656;28;20032;-75
2021/10/11 08:39:44;;;;;;;12.07;1.55;;;13.10;99.90;;;;;;5048630;28;20439;-75
2021/10/11 08:42:12;;;;;;;7.90;2.78;;;13.20;99.90;;;;;;5072431;28;20048;-75
2021/10/11 08:44:39;;;;;;;8.40;2.17;;;13.30;99.90;;;;;;5048551;28;20040;-76
2021/10/11 08:47:07;;;;;;;10.23;1.55;;;13.40;99.90;;;;;;5048901;28;20480;-75
2021/10/11 08:49:33;;;;;;;12.77;1.92;;;13.40;99.90;;;;;;5063590;28;20035;-75
2021/10/11 08:51:59;;;;;;;4.85;1.02;;;13.50;99.90;;;;;;5047701;28;20381;-76
2021/10/11 08:54:26;;;;;;;10.65;1.20;;;13.60;99.90;;;;;;5046241;28;20055;-74
2021/10/11 08:56:52;;;;;;;9.13;1.60;;;13.70;99.90;;;;;;5066499;28;20039;-74
2021/10/11 08:59:28;;;;;;;8.43;1.40;;;13.70;99.90;;;;;;5087681;28;20405;-74
2021/10/11 09:02:03;;;;;;;7.47;1.67;;;13.80;99.90;;;;;;5051596;28;20048;-75
2021/10/11 09:04:29;;;;;;;9.18;1.38;;;13.90;99.90;;;;;;5066015;28;20042;-75
2021/10/11 09:07:06;;;;;;;9.25;1.33;;;14.00;99.90;;;;;;5054438;28;20915;-75
2021/10/11 09:09:39;;;;;;;6.25;1.17;;;14.10;99.90;;;;;;5102891;28;20031;-75
2021/10/11 09:12:16;;;;;;;7.15;0.90;;;14.10;99.90;;;;;;5086584;27;20035;-75
2021/10/11 09:14:45;;;;;;;10.18;1.92;;;14.20;99.90;;;;;;5072556;28;20036;-75
2021/10/11 09:17:30;;;;;;;4.32;1.20;;;14.30;99.90;;;;;;5104013;27;20054;-75
2021/10/11 09:20:06;;;;;;;7.40;1.23;;;14.40;99.90;;;;;;5104101;28;20353;-75
2021/10/11 09:22:38;;;;;;;6.97;1.30;;;14.50;99.90;;;;;;5105594;28;20061;-75
2021/10/11 09:25:06;;;;;;;8.05;1.10;;;14.60;99.90;;;;;;5102839;28;20038;-75
2021/10/11 09:27:51;;;;;;;4.68;1.15;;;14.60;99.90;;;;;;5092567;28;20032;-76
2021/10/11 09:30:24;;;;;;;7.40;1.92;;;14.80;99.90;;;;;;5105907;28;20027;-77
2021/10/11 09:32:51;;;;;;;8.68;1.27;;;14.80;99.90;;;;;;5090403;28;20036;-76
2021/10/11 09:35:21;;;;;;;8.30;1.67;;;14.90;99.90;;;;;;5100941;28;20423;-76
2021/10/11 09:37:51;;;;;;;13.13;2.45;;;15.00;99.90;;;;;;5083159;28;20035;-76
2021/10/11 09:40:19;;;;;;;8.85;2.05;;;15.10;99.90;;;;;;5067731;28;20040;-76
2021/10/11 09:42:47;;;;;;;8.00;1.77;;;15.10;99.90;;;;;;5082474;28;20039;-76
2021/10/11 09:45:14;;;;;;;6.78;1.63;;;15.10;99.90;;;;;;5052806;28;20058;-76
2021/10/11 09:47:45;;;;;;;12.05;1.85;;;15.20;99.90;;;;;;5053296;28;20538;-76
2021/10/11 09:50:14;;;;;;;9.40;1.98;;;15.20;99.90;;;;;;5069096;28;20415;-76
2021/10/11 09:52:41;;;;;;;13.35;3.70;;;15.30;99.90;;;;;;5086752;28;20078;-76
2021/10/11 09:55:10;;;;;;;8.88;2.40;;;15.40;99.90;;;;;;5051225;28;20035;-75
2021/10/11 09:57:36;;;;;;;9.25;1.50;;;15.30;99.90;;;;;;5051797;28;20040;-75
2021/10/11 10:00:09;;;;;;;8.20;1.40;;;15.40;99.90;;;;;;5088284;28;20066;-74
2021/10/11 10:02:41;;;;;;;6.80;1.10;;;15.40;99.90;;;;;;5083709;27;20032;-74
2021/10/11 10:05:23;;;;;;;8.65;1.13;;;15.50;99.90;;;;;;5085953;28;20050;-76
2021/10/11 10:07:52;;;;;;;11.90;1.80;;;15.50;99.90;;;;;;5085414;28;20038;-76
2021/10/11 10:10:22;;;;;;;8.25;1.02;;;15.60;99.90;;;;;;5093407;28;20031;-76
2021/10/11 10:12:52;;;;;;;9.82;1.83;;;15.60;99.90;;;;;;5072924;28;20031;-76
2021/10/11 10:15:45;;;;;;;9.90;1.80;;;15.70;99.90;;;;;;5090440;27;20081;-76
2021/10/11 10:18:17;;;;;;;5.75;1.00;;;15.70;99.90;;;;;;5112114;27;20058;-76
2021/10/11 10:21:00;;;;;;;4.28;0.70;;;15.80;99.90;;;;;;5109488;27;20046;-76
2021/10/11 10:23:34;;;;;;;7.18;1.48;;;15.90;99.90;;;;;;5087463;28;20484;-76
2021/10/11 10:26:06;;;;;;;5.38;1.10;;;16.10;99.90;;;;;;5091887;28;20058;-76
2021/10/11 10:28:42;;;;;;;8.35;1.40;;;16.30;99.90;;;;;;5106574;27;20500;-76
2021/10/11 10:31:09;;;;;;;7.20;1.00;;;16.40;99.90;;;;;;5114755;27;20070;-77
2021/10/11 10:33:41;;;;;;;7.15;1.38;;;16.40;99.90;;;;;;5071034;28;20031;-76
2021/10/11 10:36:22;;;;;;;7.25;0.88;;;16.50;99.90;;;;;;5087412;28;20030;-76
2021/10/11 10:38:59;;;;;;;7.53;1.00;;;16.60;99.90;;;;;;5102011;27;20058;-77
2021/10/11 10:41:26;;;;;;;8.15;1.45;;;16.70;99.90;;;;;;5100678;28;20039;-77
2021/10/11 10:43:52;;;;;;;7.85;0.90;;;16.80;99.90;;;;;;5090106;27;20023;-76
2021/10/11 10:46:18;;;;;;;13.82;1.42;;;17.10;99.90;;;;;;5059059;28;20043;-77
2021/10/11 10:48:53;;;;;;;5.95;1.00;;;17.20;99.90;;;;;;5064478;28;20050;-76
2021/10/11 10:51:20;;;;;;;9.73;1.92;;;17.30;99.90;;;;;;5067635;28;20043;-76
2021/10/11 10:53:56;;;;;;;8.55;1.60;;;17.60;99.90;;;;;;5068770;28;20050;-76
2021/10/11 10:56:24;;;;;;;6.70;1.15;;;17.90;99.90;;;;;;5102583;28;20027;-76
2021/10/11 10:59:04;;;;;;;5.28;0.90;;;18.20;99.90;;;;;;5077291;28;20062;-76
2021/10/11 11:01:30;;;;;;;7.72;1.13;;;18.30;99.90;;;;;;5102305;28;20476;-76
2021/10/11 11:03:56;;;;;;;8.10;0.80;;;18.30;99.90;;;;;;5093810;28;20039;-76
2021/10/11 11:06:31;;;;;;;6.05;0.75;;;18.40;99.90;;;;;;5083966;28;20028;-76
2021/10/11 11:09:00;;;;;;;10.10;0.73;;;18.50;99.90;;;;;;5083014;28;20027;-77
2021/10/11 11:11:30;;;;;;;6.95;1.30;;;18.70;99.90;;;;;;5071970;27;20023;-76
2021/10/11 11:13:58;;;;;;;8.50;1.40;;;19.10;99.90;;;;;;5065300;28;20035;-76
2021/10/11 11:16:29;;;;;;;8.95;1.23;;;19.30;99.90;;;;;;5079232;27;20198;-76
2021/10/11 11:18:57;;;;;;;5.95;1.40;;;19.30;99.90;;;;;;5077523;28;20393;-76
2021/10/11 11:21:25;;;;;;;6.60;1.90;;;19.30;99.90;;;;;;5099637;27;20599;-76
2021/10/11 11:23:52;;;;;;;7.95;1.58;;;19.40;99.90;;;;;;5050481;28;20048;-76
2021/10/11 11:26:18;;;;;;;5.85;0.80;;;19.50;99.90;;;;;;5086287;28;20086;-77
2021/10/11 11:28:46;;;;;;;6.93;1.00;;;19.50;99.90;;;;;;5084752;28;20480;-77
2021/10/11 11:31:13;;;;;;;8.13;0.88;;;19.50;99.90;;;;;;5069694;28;20031;-77
2021/10/11 11:33:48;;;;;;;6.88;0.80;;;19.30;99.90;;;;;;5069112;28;20515;-77
2021/10/11 11:36:16;;;;;;;7.78;0.95;;;19.20;99.90;;;;;;5066368;28;20035;-77
2021/10/11 11:38:43;;;;;;;5.20;0.80;;;19.20;99.90;;;;;;5100037;28;20035;-77
2021/10/11 11:41:10;;;;;;;5.82;0.60;;;19.50;99.90;;;;;;5068564;28;20046;-76
2021/10/11 11:43:39;;;;;;;4.40;0.52;;;20.00;99.90;;;;;;5047339;28;20043;-77
2021/10/11 11:46:07;;;;;;;5.30;0.50;;;20.60;99.90;;;;;;5068770;27;20035;-76
2021/10/11 11:48:36;;;;;;;3.17;0.50;;;21.20;99.90;;;;;;5084203;28;20039;-77
2021/10/11 11:51:06;;;;;;;4.40;0.90;;;21.50;99.90;;;;;;5079805;28;20443;-76
2021/10/11 11:53:35;;;;;;;4.03;0.63;;;21.30;99.90;;;;;;5080244;28;20399;-77
2021/10/11 11:56:04;;;;;;;6.40;0.68;;;20.90;99.90;;;;;;5084584;28;20036;-76
2021/10/11 11:58:36;;;;;;;5.45;0.70;;;20.90;99.90;;;;;;5100871;28;20047;-76
2021/10/11 12:01:03;;;;;;;3.97;0.73;;;20.60;99.90;;;;;;5089448;28;20042;-76
2021/10/11 12:03:36;;;;;;;4.45;1.08;;;20.20;99.70;;;;;;5087123;28;20052;-76
2021/10/11 12:06:03;;;;;;;3.80;0.40;;;19.80;99.60;;;;;;5101403;28;20047;-76
2021/10/11 12:08:31;;;;;;;4.85;0.60;;;19.80;99.90;;;;;;5084268;28;20031;-76
2021/10/11 12:11:09;;;;;;;7.13;0.73;;;20.00;99.90;;;;;;5053581;28;20035;-76
2021/10/11 12:13:43;;;;;;;5.85;0.73;;;20.20;99.50;;;;;;5087999;28;20042;-76
2021/10/11 12:16:14;;;;;;;6.00;0.80;;;20.20;96.90;;;;;;5111662;27;20542;-76
2021/10/11 12:18:44;;;;;;;4.63;0.98;;;20.20;97.30;;;;;;5045867;28;20052;-76
2021/10/11 12:21:29;;;;;;;2.65;0.40;;;20.00;97.20;;;;;;5101678;27;20106;-76
2021/10/11 12:23:58;;;;;;;6.82;0.55;;;19.50;97.70;;;;;;5069984;28;20031;-76
2021/10/11 12:26:27;;;;;;;3.58;0.50;;;19.10;98.40;;;;;;5097021;28;20047;-76
2021/10/11 12:28:59;;;;;;;7.28;0.60;;;18.60;99.20;;;;;;5069546;28;20054;-76
2021/10/11 12:31:31;;;;;;;12.82;0.60;;;18.20;99.50;;;;;;5049928;28;20044;-76
2021/10/11 12:34:11;;;;;;;4.07;0.40;;;18.00;99.90;;;;;;5103886;27;20042;-76
2021/10/11 12:36:53;;;;;;;4.57;0.40;;;17.80;99.90;;;;;;5085937;28;20032;-76
2021/10/11 12:39:34;;;;;;;5.18;0.50;;;17.70;99.90;;;;;;5100095;28;20032;-76
2021/10/11 12:42:02;;;;;;;4.85;0.40;;;17.50;99.90;;;;;;5069682;28;20042;-76
2021/10/11 12:44:46;;;;;;;4.63;0.60;;;17.40;99.90;;;;;;5085699;28;20400;-76
2021/10/11 12:47:33;;;;;;;3.08;0.38;;;17.30;99.90;;;;;;5085610;28;20614;-76
2021/10/11 12:50:14;;;;;;;5.18;0.40;;;17.10;99.90;;;;;;5102688;28;20471;-76
2021/10/11 12:52:46;;;;;;;1.45;0.30;;;17.00;99.90;;;;;;5083948;28;20038;-76